sensor_id;sensor_type;location;lat;lon;timestamp;temperature;humidity
12264;DHT22;6194;49.010;8.414;2023-11-21T00:00:05;9.70;99.90
12264;DHT22;6194;49.010;8.414;2023-11-21T00:02:36;9.60;99.90
12264;DHT22;6194;49.010;8.414;2023-11-21T00:05:03;9.80;99.90
12264;DHT22;6194;49.010;8.414;2023-11-21T00:07:29;9.60;99.90
12264;DHT22;6194;49.010;8.414;2023-11-21T00:09:55;10.00;99.90
12264;DHT22;6194;49.010;8.414;2023-11-21T00:12:21;9.60;99.90
12264;DHT22;6194;49.010;8.414;2023-11-21T00:14:47;9.60;99.90
12264;DHT22;6194;49.010;8.414;2023-11-21T00:17:12;9.60;99.90
12264;DHT22;6194;49.010;8.414;2023-11-21T00:19:38;9.60;99.90
12264;DHT22;6194;49.010;8.414;2023-11-21T00:22:03;9.60;99.90
12264;DHT22;6194;49.010;8.414;2023-11-21T00:24:29;9.60;99.90
12264;DHT22;6194;49.010;8.414;2023-11-21T00:26:55;9.60;99.90
12264;DHT22;6194;49.010;8.414;2023-11-21T00:29:20;9.60;99.90
12264;DHT22;6194;49.010;8.414;2023-11-21T00:31:46;9.60;99.90
12264;DHT22;6194;49.010;8.414;2023-11-21T00:34:12;9.60;99.90
12264;DHT22;6194;49.010;8.414;2023-11-21T00:36:38;9.60;99.90
12264;DHT22;6194;49.010;8.414;2023-11-21T00:39:03;9.60;99.90
12264;DHT22;6194;49.010;8.414;2023-11-21T00:41:31;9.60;99.90
12264;DHT22;6194;49.010;8.414;2023-11-21T00:43:57;9.60;99.90
12264;DHT22;6194;49.010;8.414;2023-11-21T00:46:22;9.90;99.90
12264;DHT22;6194;49.010;8.414;2023-11-21T00:48:49;9.60;99.90
12264;DHT22;6194;49.010;8.414;2023-11-21T00:51:15;9.70;99.90
12264;DHT22;6194;49.010;8.414;2023-11-21T00:53:40;9.70;99.90
12264;DHT22;6194;49.010;8.414;2023-11-21T00:56:06;9.70;99.90
12264;DHT22;6194;49.010;8.414;2023-11-21T00:58:34;9.60;99.90
12264;DHT22;6194;49.010;8.414;2023-11-21T01:00:59;9.70;99.90
12264;DHT22;6194;49.010;8.414;2023-11-21T01:03:25;9.80;99.90
12264;DHT22;6194;49.010;8.414;2023-11-21T01:05:50;9.80;99.90
12264;DHT22;6194;49.010;8.414;2023-11-21T01:08:16;9.70;99.90
12264;DHT22;6194;49.010;8.414;2023-11-21T01:10:42;9.70;99.90
12264;DHT22;6194;49.010;8.414;2023-11-21T01:13:07;9.70;99.90
12264;DHT22;6194;49.010;8.414;2023-11-21T01:15:33;9.70;99.90
12264;DHT22;6194;49.010;8.414;2023-11-21T01:17:59;9.70;99.90
12264;DHT22;6194;49.010;8.414;2023-11-21T01:20:25;9.70;99.90
12264;DHT22;6194;49.010;8.414;2023-11-21T01:22:51;9.80;99.90
12264;DHT22;6194;49.010;8.414;2023-11-21T01:25:17;9.80;99.90
12264;DHT22;6194;49.010;8.414;2023-11-21T01:27:43;9.70;99.90
12264;DHT22;6194;49.010;8.414;2023-11-21T01:30:09;9.70;99.90
12264;DHT22;6194;49.010;8.414;2023-11-21T01:32:38;9.80;99.90
12264;DHT22;6194;49.010;8.414;2023-11-21T01:35:05;9.70;99.90
12264;DHT22;6194;49.010;8.414;2023-11-21T01:37:32;9.80;99.90
12264;DHT22;6194;49.010;8.414;2023-11-21T01:39:58;9.70;99.90
12264;DHT22;6194;49.010;8.414;2023-11-21T01:42:24;9.70;99.90
12264;DHT22;6194;49.010;8.414;2023-11-21T01:44:50;9.60;99.90
12264;DHT22;6194;49.010;8.414;2023-11-21T01:47:16;9.70;99.90
12264;DHT22;6194;49.010;8.414;2023-11-21T01:49:45;9.60;99.90
12264;DHT22;6194;49.010;8.414;2023-11-21T01:52:12;9.60;99.90
12264;DHT22;6194;49.010;8.414;2023-11-21T01:54:38;9.60;99.90
12264;DHT22;6194;49.010;8.414;2023-11-21T01:57:04;9.50;99.90
12264;DHT22;6194;49.010;8.414;2023-11-21T01:59:35;9.50;99.90
12264;DHT22;6194;49.010;8.414;2023-11-21T02:02:05;9.40;99.90
12264;DHT22;6194;49.010;8.414;2023-11-21T02:04:32;9.40;99.90
12264;DHT22;6194;49.010;8.414;2023-11-21T02:06:58;9.40;99.90
12264;DHT22;6194;49.010;8.414;2023-11-21T02:09:27;9.30;99.90
12264;DHT22;6194;49.010;8.414;2023-11-21T02:11:55;9.40;99.90
12264;DHT22;6194;49.010;8.414;2023-11-21T02:14:21;9.30;99.90
12264;DHT22;6194;49.010;8.414;2023-11-21T02:16:51;9.30;99.90
12264;DHT22;6194;49.010;8.414;2023-11-21T02:19:21;9.20;99.90
12264;DHT22;6194;49.010;8.414;2023-11-21T02:21:56;9.50;99.90
12264;DHT22;6194;49.010;8.414;2023-11-21T02:24:25;9.20;99.90
12264;DHT22;6194;49.010;8.414;2023-11-21T02:26:51;9.20;99.90
12264;DHT22;6194;49.010;8.414;2023-11-21T02:29:18;9.10;99.90
12264;DHT22;6194;49.010;8.414;2023-11-21T02:31:52;9.00;99.90
12264;DHT22;6194;49.010;8.414;2023-11-21T02:34:20;9.00;99.90
12264;DHT22;6194;49.010;8.414;2023-11-21T02:36:46;8.90;99.90
12264;DHT22;6194;49.010;8.414;2023-11-21T02:39:12;8.90;99.90
12264;DHT22;6194;49.010;8.414;2023-11-21T02:41:38;8.90;99.90
12264;DHT22;6194;49.010;8.414;2023-11-21T02:44:05;8.80;99.90
12264;DHT22;6194;49.010;8.414;2023-11-21T02:46:35;8.80;99.90
12264;DHT22;6194;49.010;8.414;2023-11-21T02:49:02;8.80;99.90
12264;DHT22;6194;49.010;8.414;2023-11-21T02:51:28;8.90;99.90
12264;DHT22;6194;49.010;8.414;2023-11-21T02:53:54;8.90;99.90
12264;DHT22;6194;49.010;8.414;2023-11-21T02:56:20;8.80;99.90
12264;DHT22;6194;49.010;8.414;2023-11-21T02:58:45;8.80;99.90
12264;DHT22;6194;49.010;8.414;2023-11-21T03:01:11;8.90;99.90
12264;DHT22;6194;49.010;8.414;2023-11-21T03:03:39;8.90;99.90
12264;DHT22;6194;49.010;8.414;2023-11-21T03:06:06;8.80;99.90
12264;DHT22;6194;49.010;8.414;2023-11-21T03:08:32;8.90;99.90
12264;DHT22;6194;49.010;8.414;2023-11-21T03:10:58;8.90;99.90
12264;DHT22;6194;49.010;8.414;2023-11-21T03:13:23;8.80;99.90
12264;DHT22;6194;49.010;8.414;2023-11-21T03:15:49;8.80;99.90
12264;DHT22;6194;49.010;8.414;2023-11-21T03:18:15;8.80;99.90
12264;DHT22;6194;49.010;8.414;2023-11-21T03:20:41;8.80;99.90
12264;DHT22;6194;49.010;8.414;2023-11-21T03:23:07;8.80;99.90
12264;DHT22;6194;49.010;8.414;2023-11-21T03:25:32;8.80;99.90
12264;DHT22;6194;49.010;8.414;2023-11-21T03:27:58;8.80;99.90
12264;DHT22;6194;49.010;8.414;2023-11-21T03:30:23;8.80;99.90
12264;DHT22;6194;49.010;8.414;2023-11-21T03:32:49;8.80;99.90
12264;DHT22;6194;49.010;8.414;2023-11-21T03:35:14;8.80;99.90
12264;DHT22;6194;49.010;8.414;2023-11-21T03:37:40;8.80;99.90
12264;DHT22;6194;49.010;8.414;2023-11-21T03:40:07;8.80;99.90
12264;DHT22;6194;49.010;8.414;2023-11-21T03:42:37;8.80;99.90
12264;DHT22;6194;49.010;8.414;2023-11-21T03:45:04;8.80;99.90
12264;DHT22;6194;49.010;8.414;2023-11-21T03:47:30;8.90;99.90
12264;DHT22;6194;49.010;8.414;2023-11-21T03:49:55;8.90;99.90
12264;DHT22;6194;49.010;8.414;2023-11-21T03:52:21;8.90;99.90
12264;DHT22;6194;49.010;8.414;2023-11-21T03:54:46;8.90;99.90
12264;DHT22;6194;49.010;8.414;2023-11-21T03:57:12;8.90;99.90
12264;DHT22;6194;49.010;8.414;2023-11-21T03:59:41;8.90;99.90
12264;DHT22;6194;49.010;8.414;2023-11-21T04:02:07;8.90;99.90
12264;DHT22;6194;49.010;8.414;2023-11-21T04:04:33;8.90;99.90
12264;DHT22;6194;49.010;8.414;2023-11-21T04:06:59;8.90;99.90
12264;DHT22;6194;49.010;8.414;2023-11-21T04:09:25;8.90;99.90
12264;DHT22;6194;49.010;8.414;2023-11-21T04:11:51;8.90;99.90
12264;DHT22;6194;49.010;8.414;2023-11-21T04:14:17;8.90;99.90
12264;DHT22;6194;49.010;8.414;2023-11-21T04:16:42;8.90;99.90
12264;DHT22;6194;49.010;8.414;2023-11-21T04:19:08;8.90;99.90
12264;DHT22;6194;49.010;8.414;2023-11-21T04:21:36;9.00;99.90
12264;DHT22;6194;49.010;8.414;2023-11-21T04:24:02;8.90;99.90
12264;DHT22;6194;49.010;8.414;2023-11-21T04:26:27;9.00;99.90
12264;DHT22;6194;49.010;8.414;2023-11-21T04:28:53;9.00;99.90
12264;DHT22;6194;49.010;8.414;2023-11-21T04:31:19;9.00;99.90
12264;DHT22;6194;49.010;8.414;2023-11-21T04:33:44;9.00;99.90
12264;DHT22;6194;49.010;8.414;2023-11-21T04:36:10;9.00;99.90
12264;DHT22;6194;49.010;8.414;2023-11-21T04:38:36;9.00;99.90
12264;DHT22;6194;49.010;8.414;2023-11-21T04:41:01;9.10;99.90
12264;DHT22;6194;49.010;8.414;2023-11-21T04:43:27;9.00;99.90
12264;DHT22;6194;49.010;8.414;2023-11-21T04:45:54;9.10;99.90
12264;DHT22;6194;49.010;8.414;2023-11-21T04:48:20;9.10;99.90
12264;DHT22;6194;49.010;8.414;2023-11-21T04:50:46;9.10;99.90
12264;DHT22;6194;49.010;8.414;2023-11-21T04:53:11;9.30;99.90
12264;DHT22;6194;49.010;8.414;2023-11-21T04:55:43;9.10;99.90
12264;DHT22;6194;49.010;8.414;2023-11-21T04:58:09;9.10;99.90
12264;DHT22;6194;49.010;8.414;2023-11-21T05:00:35;9.10;99.90
12264;DHT22;6194;49.010;8.414;2023-11-21T05:03:02;9.00;99.90
12264;DHT22;6194;49.010;8.414;2023-11-21T05:05:28;9.00;99.90
12264;DHT22;6194;49.010;8.414;2023-11-21T05:07:55;9.40;99.90
12264;DHT22;6194;49.010;8.414;2023-11-21T05:10:20;9.10;99.90
12264;DHT22;6194;49.010;8.414;2023-11-21T05:12:47;9.00;99.90
12264;DHT22;6194;49.010;8.414;2023-11-21T05:15:16;9.10;99.90
12264;DHT22;6194;49.010;8.414;2023-11-21T05:17:42;9.10;99.90
12264;DHT22;6194;49.010;8.414;2023-11-21T05:20:10;9.00;99.90
12264;DHT22;6194;49.010;8.414;2023-11-21T05:22:37;9.00;99.90
12264;DHT22;6194;49.010;8.414;2023-11-21T05:25:03;9.10;99.90
12264;DHT22;6194;49.010;8.414;2023-11-21T05:27:30;9.00;99.90
12264;DHT22;6194;49.010;8.414;2023-11-21T05:29:58;9.00;99.90
12264;DHT22;6194;49.010;8.414;2023-11-21T05:32:27;9.10;99.90
12264;DHT22;6194;49.010;8.414;2023-11-21T05:34:53;9.10;99.90
12264;DHT22;6194;49.010;8.414;2023-11-21T05:37:18;9.10;99.90
12264;DHT22;6194;49.010;8.414;2023-11-21T05:39:44;9.10;99.90
12264;DHT22;6194;49.010;8.414;2023-11-21T05:42:10;9.10;99.90
12264;DHT22;6194;49.010;8.414;2023-11-21T05:44:41;9.10;99.90
12264;DHT22;6194;49.010;8.414;2023-11-21T05:47:06;9.10;99.90
12264;DHT22;6194;49.010;8.414;2023-11-21T05:49:32;9.10;99.90
12264;DHT22;6194;49.010;8.414;2023-11-21T05:51:58;9.10;99.90
12264;DHT22;6194;49.010;8.414;2023-11-21T05:54:24;9.10;99.90
12264;DHT22;6194;49.010;8.414;2023-11-21T05:56:49;9.10;99.90
12264;DHT22;6194;49.010;8.414;2023-11-21T05:59:15;9.10;99.90
12264;DHT22;6194;49.010;8.414;2023-11-21T06:01:40;9.10;99.90
12264;DHT22;6194;49.010;8.414;2023-11-21T06:04:06;9.10;99.90
12264;DHT22;6194;49.010;8.414;2023-11-21T06:06:33;9.10;99.90
12264;DHT22;6194;49.010;8.414;2023-11-21T06:08:59;9.10;99.90
12264;DHT22;6194;49.010;8.414;2023-11-21T06:11:25;9.30;99.90
12264;DHT22;6194;49.010;8.414;2023-11-21T06:13:51;9.10;99.90
12264;DHT22;6194;49.010;8.414;2023-11-21T06:16:18;9.10;99.90
12264;DHT22;6194;49.010;8.414;2023-11-21T06:18:45;9.10;99.90
12264;DHT22;6194;49.010;8.414;2023-11-21T06:21:11;9.00;99.90
12264;DHT22;6194;49.010;8.414;2023-11-21T06:23:37;9.10;99.90
12264;DHT22;6194;49.010;8.414;2023-11-21T06:26:03;9.10;99.90
12264;DHT22;6194;49.010;8.414;2023-11-21T06:28:30;9.00;99.90
12264;DHT22;6194;49.010;8.414;2023-11-21T06:30:56;9.00;99.90
12264;DHT22;6194;49.010;8.414;2023-11-21T06:33:22;9.10;99.90
12264;DHT22;6194;49.010;8.414;2023-11-21T06:35:48;9.00;99.90
12264;DHT22;6194;49.010;8.414;2023-11-21T06:38:13;9.00;99.90
12264;DHT22;6194;49.010;8.414;2023-11-21T06:40:39;9.00;99.90
12264;DHT22;6194;49.010;8.414;2023-11-21T06:43:06;9.00;99.90
12264;DHT22;6194;49.010;8.414;2023-11-21T06:45:33;9.00;99.90
12264;DHT22;6194;49.010;8.414;2023-11-21T06:47:59;9.10;99.90
12264;DHT22;6194;49.010;8.414;2023-11-21T06:50:25;9.10;99.90
12264;DHT22;6194;49.010;8.414;2023-11-21T06:52:51;9.10;99.90
12264;DHT22;6194;49.010;8.414;2023-11-21T06:55:16;9.10;99.90
12264;DHT22;6194;49.010;8.414;2023-11-21T06:57:42;9.10;99.90
12264;DHT22;6194;49.010;8.414;2023-11-21T07:00:08;9.10;99.90
12264;DHT22;6194;49.010;8.414;2023-11-21T07:02:34;9.10;99.90
12264;DHT22;6194;49.010;8.414;2023-11-21T07:05:00;9.50;99.90
12264;DHT22;6194;49.010;8.414;2023-11-21T07:07:26;9.10;99.90
12264;DHT22;6194;49.010;8.414;2023-11-21T07:09:52;9.10;99.90
12264;DHT22;6194;49.010;8.414;2023-11-21T07:12:18;9.10;99.90
12264;DHT22;6194;49.010;8.414;2023-11-21T07:14:43;9.30;99.90
12264;DHT22;6194;49.010;8.414;2023-11-21T07:17:11;9.10;99.90
12264;DHT22;6194;49.010;8.414;2023-11-21T07:19:38;9.10;99.90
12264;DHT22;6194;49.010;8.414;2023-11-21T07:22:03;9.10;99.90
12264;DHT22;6194;49.010;8.414;2023-11-21T07:24:31;9.10;99.90
12264;DHT22;6194;49.010;8.414;2023-11-21T07:26:57;9.30;99.90
12264;DHT22;6194;49.010;8.414;2023-11-21T07:29:26;9.10;99.90
12264;DHT22;6194;49.010;8.414;2023-11-21T07:31:52;9.10;99.90
12264;DHT22;6194;49.010;8.414;2023-11-21T07:34:20;9.20;99.90
12264;DHT22;6194;49.010;8.414;2023-11-21T07:36:46;9.10;99.90
12264;DHT22;6194;49.010;8.414;2023-11-21T07:39:11;9.10;99.90
12264;DHT22;6194;49.010;8.414;2023-11-21T07:41:37;9.10;99.90
12264;DHT22;6194;49.010;8.414;2023-11-21T07:44:04;9.10;99.90
12264;DHT22;6194;49.010;8.414;2023-11-21T07:46:30;9.20;99.90
12264;DHT22;6194;49.010;8.414;2023-11-21T07:48:56;9.10;99.90
12264;DHT22;6194;49.010;8.414;2023-11-21T07:51:21;9.10;99.90
12264;DHT22;6194;49.010;8.414;2023-11-21T07:53:47;9.20;99.90
12264;DHT22;6194;49.010;8.414;2023-11-21T07:56:13;9.10;99.90
12264;DHT22;6194;49.010;8.414;2023-11-21T07:58:38;9.20;99.90
12264;DHT22;6194;49.010;8.414;2023-11-21T08:01:04;9.20;99.90
12264;DHT22;6194;49.010;8.414;2023-11-21T08:03:30;10.70;99.90
12264;DHT22;6194;49.010;8.414;2023-11-21T08:05:57;9.20;99.90
12264;DHT22;6194;49.010;8.414;2023-11-21T08:08:23;9.20;99.90
12264;DHT22;6194;49.010;8.414;2023-11-21T08:10:49;9.20;99.90
12264;DHT22;6194;49.010;8.414;2023-11-21T08:13:22;9.10;99.90
12264;DHT22;6194;49.010;8.414;2023-11-21T08:15:48;9.00;99.90
12264;DHT22;6194;49.010;8.414;2023-11-21T08:18:13;9.00;99.90
12264;DHT22;6194;49.010;8.414;2023-11-21T08:20:40;9.10;99.90
12264;DHT22;6194;49.010;8.414;2023-11-21T08:23:06;9.10;99.90
12264;DHT22;6194;49.010;8.414;2023-11-21T08:25:32;9.10;99.90
12264;DHT22;6194;49.010;8.414;2023-11-21T08:28:00;9.10;99.90
12264;DHT22;6194;49.010;8.414;2023-11-21T08:30:25;9.10;99.90
12264;DHT22;6194;49.010;8.414;2023-11-21T08:32:54;9.10;99.90
12264;DHT22;6194;49.010;8.414;2023-11-21T08:35:23;9.20;99.90
12264;DHT22;6194;49.010;8.414;2023-11-21T08:37:51;9.20;99.90
12264;DHT22;6194;49.010;8.414;2023-11-21T08:40:18;9.30;99.90
12264;DHT22;6194;49.010;8.414;2023-11-21T08:42:44;9.40;99.90
12264;DHT22;6194;49.010;8.414;2023-11-21T08:45:11;9.40;99.90
12264;DHT22;6194;49.010;8.414;2023-11-21T08:47:38;9.40;99.90
12264;DHT22;6194;49.010;8.414;2023-11-21T08:50:08;9.40;99.90
12264;DHT22;6194;49.010;8.414;2023-11-21T08:52:34;9.50;99.90
12264;DHT22;6194;49.010;8.414;2023-11-21T08:55:00;9.40;99.90
12264;DHT22;6194;49.010;8.414;2023-11-21T08:57:35;9.40;99.90
12264;DHT22;6194;49.010;8.414;2023-11-21T09:00:01;9.40;99.90
12264;DHT22;6194;49.010;8.414;2023-11-21T09:02:28;9.40;99.90
12264;DHT22;6194;49.010;8.414;2023-11-21T09:04:53;9.40;99.90
12264;DHT22;6194;49.010;8.414;2023-11-21T09:07:19;9.40;99.90
12264;DHT22;6194;49.010;8.414;2023-11-21T09:09:47;9.40;99.90
12264;DHT22;6194;49.010;8.414;2023-11-21T09:12:14;9.50;99.90
12264;DHT22;6194;49.010;8.414;2023-11-21T09:14:40;9.60;99.90
12264;DHT22;6194;49.010;8.414;2023-11-21T09:17:06;9.60;99.90
12264;DHT22;6194;49.010;8.414;2023-11-21T09:19:39;9.50;99.90
12264;DHT22;6194;49.010;8.414;2023-11-21T09:22:05;9.50;99.90
12264;DHT22;6194;49.010;8.414;2023-11-21T09:24:31;9.60;99.90
12264;DHT22;6194;49.010;8.414;2023-11-21T09:26:57;9.60;99.90
12264;DHT22;6194;49.010;8.414;2023-11-21T09:29:23;9.50;99.90
12264;DHT22;6194;49.010;8.414;2023-11-21T09:31:49;9.60;99.90
12264;DHT22;6194;49.010;8.414;2023-11-21T09:34:17;9.50;99.90
12264;DHT22;6194;49.010;8.414;2023-11-21T09:36:45;9.60;99.90
12264;DHT22;6194;49.010;8.414;2023-11-21T09:39:11;9.70;99.90
12264;DHT22;6194;49.010;8.414;2023-11-21T09:41:54;9.70;99.90
12264;DHT22;6194;49.010;8.414;2023-11-21T09:47:02;9.70;99.90
12264;DHT22;6194;49.010;8.414;2023-11-21T09:49:28;10.90;99.90
12264;DHT22;6194;49.010;8.414;2023-11-21T09:51:58;9.70;99.90
12264;DHT22;6194;49.010;8.414;2023-11-21T09:54:29;9.60;99.90
12264;DHT22;6194;49.010;8.414;2023-11-21T09:56:54;9.60;99.90
12264;DHT22;6194;49.010;8.414;2023-11-21T09:59:21;9.60;99.90
12264;DHT22;6194;49.010;8.414;2023-11-21T10:01:47;9.50;99.90
12264;DHT22;6194;49.010;8.414;2023-11-21T10:04:13;9.60;99.90
12264;DHT22;6194;49.010;8.414;2023-11-21T10:06:39;9.50;99.90
12264;DHT22;6194;49.010;8.414;2023-11-21T10:09:12;9.50;99.90
12264;DHT22;6194;49.010;8.414;2023-11-21T10:11:42;9.50;99.90
12264;DHT22;6194;49.010;8.414;2023-11-21T10:14:11;9.60;99.90
12264;DHT22;6194;49.010;8.414;2023-11-21T10:16:39;9.50;99.90
12264;DHT22;6194;49.010;8.414;2023-11-21T10:19:06;9.90;99.90
12264;DHT22;6194;49.010;8.414;2023-11-21T10:21:34;9.40;99.90
12264;DHT22;6194;49.010;8.414;2023-11-21T10:23:59;9.50;99.90
12264;DHT22;6194;49.010;8.414;2023-11-21T10:26:29;9.60;99.90
12264;DHT22;6194;49.010;8.414;2023-11-21T10:29:01;9.90;99.90
12264;DHT22;6194;49.010;8.414;2023-11-21T10:31:31;9.60;99.90
12264;DHT22;6194;49.010;8.414;2023-11-21T10:34:18;9.60;99.90
12264;DHT22;6194;49.010;8.414;2023-11-21T10:36:44;9.60;99.90
12264;DHT22;6194;49.010;8.414;2023-11-21T10:39:20;9.60;99.90
12264;DHT22;6194;49.010;8.414;2023-11-21T10:41:49;9.60;99.90
12264;DHT22;6194;49.010;8.414;2023-11-21T10:44:19;9.70;99.90
12264;DHT22;6194;49.010;8.414;2023-11-21T10:46:50;9.60;99.90
12264;DHT22;6194;49.010;8.414;2023-11-21T10:49:26;9.70;99.90
12264;DHT22;6194;49.010;8.414;2023-11-21T10:51:55;10.00;99.90
12264;DHT22;6194;49.010;8.414;2023-11-21T10:54:23;10.10;99.90
12264;DHT22;6194;49.010;8.414;2023-11-21T10:56:50;9.70;99.90
12264;DHT22;6194;49.010;8.414;2023-11-21T10:59:18;9.70;99.90
12264;DHT22;6194;49.010;8.414;2023-11-21T11:01:46;9.60;99.90
12264;DHT22;6194;49.010;8.414;2023-11-21T11:04:12;9.70;99.90
12264;DHT22;6194;49.010;8.414;2023-11-21T11:06:54;9.70;99.90
12264;DHT22;6194;49.010;8.414;2023-11-21T11:09:20;9.60;99.90
12264;DHT22;6194;49.010;8.414;2023-11-21T11:11:46;9.60;99.90
12264;DHT22;6194;49.010;8.414;2023-11-21T11:14:13;9.60;99.90
12264;DHT22;6194;49.010;8.414;2023-11-21T11:16:39;9.70;99.90
12264;DHT22;6194;49.010;8.414;2023-11-21T11:19:11;9.70;99.90
12264;DHT22;6194;49.010;8.414;2023-11-21T11:24:24;9.70;99.90
12264;DHT22;6194;49.010;8.414;2023-11-21T11:29:38;9.60;99.90
12264;DHT22;6194;49.010;8.414;2023-11-21T11:32:33;9.50;99.90
12264;DHT22;6194;49.010;8.414;2023-11-21T11:35:10;9.40;99.90
12264;DHT22;6194;49.010;8.414;2023-11-21T11:37:42;9.40;99.90
12264;DHT22;6194;49.010;8.414;2023-11-21T11:40:08;9.40;99.90
12264;DHT22;6194;49.010;8.414;2023-11-21T11:42:36;9.40;99.90
12264;DHT22;6194;49.010;8.414;2023-11-21T11:45:01;9.40;99.90
12264;DHT22;6194;49.010;8.414;2023-11-21T11:47:31;9.40;99.90
12264;DHT22;6194;49.010;8.414;2023-11-21T11:52:47;9.40;99.90
12264;DHT22;6194;49.010;8.414;2023-11-21T11:55:15;9.40;99.90
12264;DHT22;6194;49.010;8.414;2023-11-21T11:57:46;9.50;99.90
12264;DHT22;6194;49.010;8.414;2023-11-21T12:02:57;9.60;99.90
12264;DHT22;6194;49.010;8.414;2023-11-21T12:05:25;9.70;99.90
12264;DHT22;6194;49.010;8.414;2023-11-21T12:07:54;9.80;99.90
12264;DHT22;6194;49.010;8.414;2023-11-21T12:10:22;9.70;99.90
12264;DHT22;6194;49.010;8.414;2023-11-21T12:12:51;9.70;99.90
12264;DHT22;6194;49.010;8.414;2023-11-21T12:15:20;9.80;99.90
12264;DHT22;6194;49.010;8.414;2023-11-21T12:17:47;9.80;99.90
12264;DHT22;6194;49.010;8.414;2023-11-21T12:20:16;9.80;99.90
12264;DHT22;6194;49.010;8.414;2023-11-21T12:22:44;9.80;99.90
12264;DHT22;6194;49.010;8.414;2023-11-21T12:25:13;9.80;99.90
12264;DHT22;6194;49.010;8.414;2023-11-21T12:27:42;9.90;99.90
12264;DHT22;6194;49.010;8.414;2023-11-21T12:30:09;9.80;99.90
12264;DHT22;6194;49.010;8.414;2023-11-21T12:32:39;9.80;99.90
12264;DHT22;6194;49.010;8.414;2023-11-21T12:35:06;10.00;99.90
12264;DHT22;6194;49.010;8.414;2023-11-21T12:37:32;9.90;99.90
12264;DHT22;6194;49.010;8.414;2023-11-21T12:39:58;9.80;99.90
12264;DHT22;6194;49.010;8.414;2023-11-21T12:42:24;9.80;99.90
12264;DHT22;6194;49.010;8.414;2023-11-21T12:47:44;9.90;99.90
12264;DHT22;6194;49.010;8.414;2023-11-21T12:50:12;9.80;99.90
12264;DHT22;6194;49.010;8.414;2023-11-21T12:52:47;9.80;99.90
12264;DHT22;6194;49.010;8.414;2023-11-21T12:55:20;9.80;99.90
12264;DHT22;6194;49.010;8.414;2023-11-21T12:57:53;9.80;99.90
12264;DHT22;6194;49.010;8.414;2023-11-21T13:00:32;9.90;99.90
12264;DHT22;6194;49.010;8.414;2023-11-21T13:02:59;9.90;99.90
12264;DHT22;6194;49.010;8.414;2023-11-21T13:05:36;10.00;99.90
12264;DHT22;6194;49.010;8.414;2023-11-21T13:08:05;10.10;99.90
12264;DHT22;6194;49.010;8.414;2023-11-21T13:10:34;10.10;99.90
12264;DHT22;6194;49.010;8.414;2023-11-21T13:13:02;10.00;99.90
12264;DHT22;6194;49.010;8.414;2023-11-21T13:15:31;10.10;99.90
12264;DHT22;6194;49.010;8.414;2023-11-21T13:17:58;10.20;99.90
12264;DHT22;6194;49.010;8.414;2023-11-21T13:20:27;10.20;99.90
12264;DHT22;6194;49.010;8.414;2023-11-21T13:22:55;10.20;99.90
12264;DHT22;6194;49.010;8.414;2023-11-21T13:25:25;10.20;99.90
12264;DHT22;6194;49.010;8.414;2023-11-21T13:27:57;10.10;99.90
12264;DHT22;6194;49.010;8.414;2023-11-21T13:30:23;10.20;99.90
12264;DHT22;6194;49.010;8.414;2023-11-21T13:32:53;10.20;99.90
12264;DHT22;6194;49.010;8.414;2023-11-21T13:35:23;10.20;99.90
12264;DHT22;6194;49.010;8.414;2023-11-21T13:37:57;10.30;99.90
12264;DHT22;6194;49.010;8.414;2023-11-21T13:40:25;10.50;99.90
12264;DHT22;6194;49.010;8.414;2023-11-21T13:42:53;10.60;99.90
12264;DHT22;6194;49.010;8.414;2023-11-21T13:45:23;10.80;99.90
12264;DHT22;6194;49.010;8.414;2023-11-21T13:47:52;10.90;99.90
12264;DHT22;6194;49.010;8.414;2023-11-21T13:50:23;11.00;99.90
12264;DHT22;6194;49.010;8.414;2023-11-21T13:52:53;11.10;99.90
12264;DHT22;6194;49.010;8.414;2023-11-21T13:55:20;11.10;99.90
12264;DHT22;6194;49.010;8.414;2023-11-21T13:57:47;11.00;99.90
12264;DHT22;6194;49.010;8.414;2023-11-21T14:00:17;11.00;99.90
12264;DHT22;6194;49.010;8.414;2023-11-21T14:03:01;10.70;99.90
12264;DHT22;6194;49.010;8.414;2023-11-21T14:05:30;10.50;99.90
12264;DHT22;6194;49.010;8.414;2023-11-21T14:07:57;10.50;99.90
12264;DHT22;6194;49.010;8.414;2023-11-21T14:10:31;10.40;99.90
12264;DHT22;6194;49.010;8.414;2023-11-21T14:13:08;10.40;99.90
12264;DHT22;6194;49.010;8.414;2023-11-21T14:15:39;10.30;99.90
12264;DHT22;6194;49.010;8.414;2023-11-21T14:18:09;10.30;99.90
12264;DHT22;6194;49.010;8.414;2023-11-21T14:20:40;10.30;99.90
12264;DHT22;6194;49.010;8.414;2023-11-21T14:23:06;10.20;99.90
12264;DHT22;6194;49.010;8.414;2023-11-21T14:25:34;10.30;99.90
12264;DHT22;6194;49.010;8.414;2023-11-21T14:28:00;10.30;99.90
12264;DHT22;6194;49.010;8.414;2023-11-21T14:30:25;10.40;99.90
12264;DHT22;6194;49.010;8.414;2023-11-21T14:32:52;10.40;99.90
12264;DHT22;6194;49.010;8.414;2023-11-21T14:35:18;10.40;99.90
12264;DHT22;6194;49.010;8.414;2023-11-21T14:37:44;10.70;99.90
12264;DHT22;6194;49.010;8.414;2023-11-21T14:40:12;10.40;99.90
12264;DHT22;6194;49.010;8.414;2023-11-21T14:42:44;10.50;99.90
12264;DHT22;6194;49.010;8.414;2023-11-21T14:45:12;10.50;99.90
12264;DHT22;6194;49.010;8.414;2023-11-21T14:47:38;10.40;99.90
12264;DHT22;6194;49.010;8.414;2023-11-21T14:50:09;10.40;99.90
12264;DHT22;6194;49.010;8.414;2023-11-21T14:52:53;10.40;99.90
12264;DHT22;6194;49.010;8.414;2023-11-21T14:55:24;10.30;99.90
12264;DHT22;6194;49.010;8.414;2023-11-21T14:57:50;10.20;99.90
12264;DHT22;6194;49.010;8.414;2023-11-21T15:00:20;10.20;99.90
12264;DHT22;6194;49.010;8.414;2023-11-21T15:03:01;10.10;99.90
12264;DHT22;6194;49.010;8.414;2023-11-21T15:05:27;10.00;99.90
12264;DHT22;6194;49.010;8.414;2023-11-21T15:07:54;9.90;99.90
12264;DHT22;6194;49.010;8.414;2023-11-21T15:10:34;9.90;99.90
12264;DHT22;6194;49.010;8.414;2023-11-21T15:13:14;9.90;99.90
12264;DHT22;6194;49.010;8.414;2023-11-21T15:15:41;9.90;99.90
12264;DHT22;6194;49.010;8.414;2023-11-21T15:18:07;9.90;99.90
12264;DHT22;6194;49.010;8.414;2023-11-21T15:20:33;9.80;99.90
12264;DHT22;6194;49.010;8.414;2023-11-21T15:22:58;9.90;99.90
12264;DHT22;6194;49.010;8.414;2023-11-21T15:25:25;9.90;99.90
12264;DHT22;6194;49.010;8.414;2023-11-21T15:27:51;9.90;99.90
12264;DHT22;6194;49.010;8.414;2023-11-21T15:30:16;9.80;99.90
12264;DHT22;6194;49.010;8.414;2023-11-21T15:32:50;9.80;99.90
12264;DHT22;6194;49.010;8.414;2023-11-21T15:35:16;9.70;99.90
12264;DHT22;6194;49.010;8.414;2023-11-21T15:37:41;9.70;99.90
12264;DHT22;6194;49.010;8.414;2023-11-21T15:40:09;9.80;99.90
12264;DHT22;6194;49.010;8.414;2023-11-21T15:42:35;9.50;99.90
12264;DHT22;6194;49.010;8.414;2023-11-21T15:45:04;9.40;99.90
12264;DHT22;6194;49.010;8.414;2023-11-21T15:47:32;9.40;99.90
12264;DHT22;6194;49.010;8.414;2023-11-21T15:49:58;9.60;99.90
12264;DHT22;6194;49.010;8.414;2023-11-21T15:52:24;9.50;99.90
12264;DHT22;6194;49.010;8.414;2023-11-21T15:54:49;9.20;99.90
12264;DHT22;6194;49.010;8.414;2023-11-21T15:57:15;9.10;99.90
12264;DHT22;6194;49.010;8.414;2023-11-21T15:59:43;9.00;99.90
12264;DHT22;6194;49.010;8.414;2023-11-21T16:02:10;8.80;99.90
12264;DHT22;6194;49.010;8.414;2023-11-21T16:04:37;8.80;99.90
12264;DHT22;6194;49.010;8.414;2023-11-21T16:07:05;8.70;99.90
12264;DHT22;6194;49.010;8.414;2023-11-21T16:09:33;8.60;99.90
12264;DHT22;6194;49.010;8.414;2023-11-21T16:12:03;8.60;99.90
12264;DHT22;6194;49.010;8.414;2023-11-21T16:14:30;8.50;99.90
12264;DHT22;6194;49.010;8.414;2023-11-21T16:17:01;8.40;99.90